sensor_id;sensor_type;location;lat;lon;timestamp;temperature;humidity
40822;DHT22;26542;50.836;5.356;2022-08-14T00:00:19;20.10;80.00
40822;DHT22;26542;50.836;5.356;2022-08-14T00:02:46;20.00;80.40
40822;DHT22;26542;50.836;5.356;2022-08-14T00:05:19;20.10;80.20
40822;DHT22;26542;50.836;5.356;2022-08-14T00:07:45;19.90;80.70
40822;DHT22;26542;50.836;5.356;2022-08-14T00:10:15;19.80;80.90
40822;DHT22;26542;50.836;5.356;2022-08-14T00:12:51;19.80;79.60
40822;DHT22;26542;50.836;5.356;2022-08-14T00:15:30;19.80;80.20
40822;DHT22;26542;50.836;5.356;2022-08-14T00:17:58;19.90;80.60
40822;DHT22;26542;50.836;5.356;2022-08-14T00:20:27;19.70;81.10
40822;DHT22;26542;50.836;5.356;2022-08-14T00:22:53;19.60;80.90
40822;DHT22;26542;50.836;5.356;2022-08-14T00:25:19;19.60;81.10
40822;DHT22;26542;50.836;5.356;2022-08-14T00:27:45;19.60;81.00
40822;DHT22;26542;50.836;5.356;2022-08-14T00:30:13;19.60;80.40
40822;DHT22;26542;50.836;5.356;2022-08-14T00:32:40;19.50;80.50
40822;DHT22;26542;50.836;5.356;2022-08-14T00:35:07;19.50;80.40
40822;DHT22;26542;50.836;5.356;2022-08-14T00:37:33;19.50;80.90
40822;DHT22;26542;50.836;5.356;2022-08-14T00:39:59;19.50;80.80
40822;DHT22;26542;50.836;5.356;2022-08-14T00:42:26;19.50;80.60
40822;DHT22;26542;50.836;5.356;2022-08-14T00:44:53;19.50;80.90
40822;DHT22;26542;50.836;5.356;2022-08-14T00:47:21;19.50;81.20
40822;DHT22;26542;50.836;5.356;2022-08-14T00:49:50;19.50;81.50
40822;DHT22;26542;50.836;5.356;2022-08-14T00:52:18;19.50;81.40
40822;DHT22;26542;50.836;5.356;2022-08-14T00:54:46;19.50;81.70
40822;DHT22;26542;50.836;5.356;2022-08-14T00:57:17;19.50;81.80
40822;DHT22;26542;50.836;5.356;2022-08-14T00:59:43;19.40;81.90
40822;DHT22;26542;50.836;5.356;2022-08-14T01:02:11;19.50;81.80
40822;DHT22;26542;50.836;5.356;2022-08-14T01:04:40;19.50;81.60
40822;DHT22;26542;50.836;5.356;2022-08-14T01:07:09;19.40;82.10
40822;DHT22;26542;50.836;5.356;2022-08-14T01:09:36;19.30;82.10
40822;DHT22;26542;50.836;5.356;2022-08-14T01:12:03;19.30;82.40
40822;DHT22;26542;50.836;5.356;2022-08-14T01:14:29;19.30;82.10
40822;DHT22;26542;50.836;5.356;2022-08-14T01:16:55;19.30;82.40
40822;DHT22;26542;50.836;5.356;2022-08-14T01:19:23;19.20;82.80
40822;DHT22;26542;50.836;5.356;2022-08-14T01:22:08;19.20;83.00
40822;DHT22;26542;50.836;5.356;2022-08-14T01:24:34;19.20;82.80
40822;DHT22;26542;50.836;5.356;2022-08-14T01:27:01;19.10;82.80
40822;DHT22;26542;50.836;5.356;2022-08-14T01:29:31;19.10;83.20
40822;DHT22;26542;50.836;5.356;2022-08-14T01:32:03;19.10;83.70
40822;DHT22;26542;50.836;5.356;2022-08-14T01:34:29;19.00;83.90
40822;DHT22;26542;50.836;5.356;2022-08-14T01:37:01;19.00;83.80
40822;DHT22;26542;50.836;5.356;2022-08-14T01:39:29;19.00;83.50
40822;DHT22;26542;50.836;5.356;2022-08-14T01:41:55;19.00;83.20
40822;DHT22;26542;50.836;5.356;2022-08-14T01:44:28;18.90;83.60
40822;DHT22;26542;50.836;5.356;2022-08-14T01:46:57;18.90;83.60
40822;DHT22;26542;50.836;5.356;2022-08-14T01:49:23;18.80;83.80
40822;DHT22;26542;50.836;5.356;2022-08-14T01:51:52;18.80;84.00
40822;DHT22;26542;50.836;5.356;2022-08-14T01:54:23;18.80;83.90
40822;DHT22;26542;50.836;5.356;2022-08-14T01:56:54;18.80;83.50
40822;DHT22;26542;50.836;5.356;2022-08-14T01:59:29;18.70;83.60
40822;DHT22;26542;50.836;5.356;2022-08-14T02:02:03;18.70;83.60
40822;DHT22;26542;50.836;5.356;2022-08-14T02:04:35;18.80;83.90
40822;DHT22;26542;50.836;5.356;2022-08-14T02:07:06;18.70;83.70
40822;DHT22;26542;50.836;5.356;2022-08-14T02:09:32;18.70;83.50
40822;DHT22;26542;50.836;5.356;2022-08-14T02:12:03;18.60;83.40
40822;DHT22;26542;50.836;5.356;2022-08-14T02:14:30;18.60;83.00
40822;DHT22;26542;50.836;5.356;2022-08-14T02:16:56;18.50;83.30
40822;DHT22;26542;50.836;5.356;2022-08-14T02:19:24;18.50;83.10
40822;DHT22;26542;50.836;5.356;2022-08-14T02:21:54;18.50;83.30
40822;DHT22;26542;50.836;5.356;2022-08-14T02:24:22;18.50;83.40
40822;DHT22;26542;50.836;5.356;2022-08-14T02:26:49;18.50;83.50
40822;DHT22;26542;50.836;5.356;2022-08-14T02:29:17;18.50;83.70
40822;DHT22;26542;50.836;5.356;2022-08-14T02:31:49;18.40;83.80
40822;DHT22;26542;50.836;5.356;2022-08-14T02:34:25;18.30;84.20
40822;DHT22;26542;50.836;5.356;2022-08-14T02:36:56;18.40;84.10
40822;DHT22;26542;50.836;5.356;2022-08-14T02:39:29;18.20;84.20
40822;DHT22;26542;50.836;5.356;2022-08-14T02:41:57;18.20;84.40
40822;DHT22;26542;50.836;5.356;2022-08-14T02:44:24;18.10;84.60
40822;DHT22;26542;50.836;5.356;2022-08-14T02:46:51;18.10;84.90
40822;DHT22;26542;50.836;5.356;2022-08-14T02:49:18;18.10;84.80
40822;DHT22;26542;50.836;5.356;2022-08-14T02:51:49;18.10;84.90
40822;DHT22;26542;50.836;5.356;2022-08-14T02:54:15;18.10;85.00
40822;DHT22;26542;50.836;5.356;2022-08-14T02:56:41;18.00;84.90
40822;DHT22;26542;50.836;5.356;2022-08-14T02:59:12;18.10;84.90
40822;DHT22;26542;50.836;5.356;2022-08-14T03:01:38;18.10;84.70
40822;DHT22;26542;50.836;5.356;2022-08-14T03:04:05;18.10;85.10
40822;DHT22;26542;50.836;5.356;2022-08-14T03:06:36;18.10;85.30
40822;DHT22;26542;50.836;5.356;2022-08-14T03:09:03;18.10;85.70
40822;DHT22;26542;50.836;5.356;2022-08-14T03:11:29;18.00;85.80
40822;DHT22;26542;50.836;5.356;2022-08-14T03:13:55;18.10;86.00
40822;DHT22;26542;50.836;5.356;2022-08-14T03:16:23;18.00;85.90
40822;DHT22;26542;50.836;5.356;2022-08-14T03:18:51;18.00;86.00
40822;DHT22;26542;50.836;5.356;2022-08-14T03:24:03;18.00;86.20
40822;DHT22;26542;50.836;5.356;2022-08-14T03:26:47;18.00;86.50
40822;DHT22;26542;50.836;5.356;2022-08-14T03:29:16;18.00;87.00
40822;DHT22;26542;50.836;5.356;2022-08-14T03:31:45;17.90;86.40
40822;DHT22;26542;50.836;5.356;2022-08-14T03:34:14;17.90;86.20
40822;DHT22;26542;50.836;5.356;2022-08-14T03:36:39;17.80;86.60
40822;DHT22;26542;50.836;5.356;2022-08-14T03:39:09;17.70;86.90
40822;DHT22;26542;50.836;5.356;2022-08-14T03:41:35;17.80;87.00
40822;DHT22;26542;50.836;5.356;2022-08-14T03:44:05;17.70;87.50
40822;DHT22;26542;50.836;5.356;2022-08-14T03:46:34;17.70;87.20
40822;DHT22;26542;50.836;5.356;2022-08-14T03:49:01;17.80;86.70
40822;DHT22;26542;50.836;5.356;2022-08-14T03:51:30;17.80;87.00
40822;DHT22;26542;50.836;5.356;2022-08-14T03:53:58;17.70;87.30
40822;DHT22;26542;50.836;5.356;2022-08-14T03:56:26;17.60;87.60
40822;DHT22;26542;50.836;5.356;2022-08-14T03:58:55;17.50;88.00
40822;DHT22;26542;50.836;5.356;2022-08-14T04:01:22;17.60;88.00
40822;DHT22;26542;50.836;5.356;2022-08-14T04:03:50;17.50;88.40
40822;DHT22;26542;50.836;5.356;2022-08-14T04:06:17;17.50;88.70
40822;DHT22;26542;50.836;5.356;2022-08-14T04:08:45;17.50;88.80
40822;DHT22;26542;50.836;5.356;2022-08-14T04:11:11;17.50;88.80
40822;DHT22;26542;50.836;5.356;2022-08-14T04:13:39;17.50;88.60
40822;DHT22;26542;50.836;5.356;2022-08-14T04:16:24;17.40;88.70
40822;DHT22;26542;50.836;5.356;2022-08-14T04:18:51;17.40;89.20
40822;DHT22;26542;50.836;5.356;2022-08-14T04:21:18;17.30;89.10
40822;DHT22;26542;50.836;5.356;2022-08-14T04:23:45;17.30;88.90
40822;DHT22;26542;50.836;5.356;2022-08-14T04:26:14;17.30;88.80
40822;DHT22;26542;50.836;5.356;2022-08-14T04:28:44;17.20;88.90
40822;DHT22;26542;50.836;5.356;2022-08-14T04:31:10;17.20;89.20
40822;DHT22;26542;50.836;5.356;2022-08-14T04:33:38;17.10;89.60
40822;DHT22;26542;50.836;5.356;2022-08-14T04:36:04;17.30;89.60
40822;DHT22;26542;50.836;5.356;2022-08-14T04:38:30;17.20;89.60
40822;DHT22;26542;50.836;5.356;2022-08-14T04:41:14;17.20;89.50
40822;DHT22;26542;50.836;5.356;2022-08-14T04:44:19;17.30;89.50
40822;DHT22;26542;50.836;5.356;2022-08-14T04:46:47;17.20;89.50
40822;DHT22;26542;50.836;5.356;2022-08-14T04:49:32;17.20;90.00
40822;DHT22;26542;50.836;5.356;2022-08-14T04:52:00;17.10;90.20
40822;DHT22;26542;50.836;5.356;2022-08-14T04:54:29;17.10;90.20
40822;DHT22;26542;50.836;5.356;2022-08-14T04:56:57;17.20;90.30
40822;DHT22;26542;50.836;5.356;2022-08-14T04:59:23;17.10;90.40
40822;DHT22;26542;50.836;5.356;2022-08-14T05:01:50;17.10;90.50
40822;DHT22;26542;50.836;5.356;2022-08-14T05:04:20;17.10;90.40
40822;DHT22;26542;50.836;5.356;2022-08-14T05:06:48;17.00;90.40
40822;DHT22;26542;50.836;5.356;2022-08-14T05:09:22;17.20;90.40
40822;DHT22;26542;50.836;5.356;2022-08-14T05:12:12;17.30;90.20
40822;DHT22;26542;50.836;5.356;2022-08-14T05:18:07;17.30;90.10
40822;DHT22;26542;50.836;5.356;2022-08-14T05:20:44;17.40;90.10
40822;DHT22;26542;50.836;5.356;2022-08-14T05:23:12;17.40;90.30
40822;DHT22;26542;50.836;5.356;2022-08-14T05:25:40;17.50;90.10
40822;DHT22;26542;50.836;5.356;2022-08-14T05:28:13;17.50;90.10
40822;DHT22;26542;50.836;5.356;2022-08-14T05:30:45;17.60;90.50
40822;DHT22;26542;50.836;5.356;2022-08-14T05:33:12;17.70;90.20
40822;DHT22;26542;50.836;5.356;2022-08-14T05:35:42;17.80;90.20
40822;DHT22;26542;50.836;5.356;2022-08-14T05:38:13;17.90;89.60
40822;DHT22;26542;50.836;5.356;2022-08-14T05:40:40;18.10;89.30
40822;DHT22;26542;50.836;5.356;2022-08-14T05:43:06;18.20;89.50
40822;DHT22;26542;50.836;5.356;2022-08-14T05:45:39;18.40;89.40
40822;DHT22;26542;50.836;5.356;2022-08-14T05:48:06;18.50;89.20
40822;DHT22;26542;50.836;5.356;2022-08-14T05:50:33;18.80;89.10
40822;DHT22;26542;50.836;5.356;2022-08-14T05:53:02;18.90;89.20
40822;DHT22;26542;50.836;5.356;2022-08-14T05:55:29;19.00;89.40
40822;DHT22;26542;50.836;5.356;2022-08-14T05:58:03;19.20;89.10
40822;DHT22;26542;50.836;5.356;2022-08-14T06:00:35;19.40;89.10
40822;DHT22;26542;50.836;5.356;2022-08-14T06:03:04;19.60;88.40
40822;DHT22;26542;50.836;5.356;2022-08-14T06:05:30;19.90;88.50
40822;DHT22;26542;50.836;5.356;2022-08-14T06:08:05;20.10;87.70
40822;DHT22;26542;50.836;5.356;2022-08-14T06:10:35;20.30;87.20
40822;DHT22;26542;50.836;5.356;2022-08-14T06:13:06;20.60;87.40
40822;DHT22;26542;50.836;5.356;2022-08-14T06:15:32;20.90;87.30
40822;DHT22;26542;50.836;5.356;2022-08-14T06:18:07;21.10;86.40
40822;DHT22;26542;50.836;5.356;2022-08-14T06:20:33;21.30;86.00
40822;DHT22;26542;50.836;5.356;2022-08-14T06:23:03;21.60;85.20
40822;DHT22;26542;50.836;5.356;2022-08-14T06:25:29;21.80;84.50
40822;DHT22;26542;50.836;5.356;2022-08-14T06:27:55;22.00;83.80
40822;DHT22;26542;50.836;5.356;2022-08-14T06:30:24;22.20;81.60
40822;DHT22;26542;50.836;5.356;2022-08-14T06:32:53;22.30;80.30
40822;DHT22;26542;50.836;5.356;2022-08-14T06:35:29;22.50;79.50
40822;DHT22;26542;50.836;5.356;2022-08-14T06:38:00;22.60;80.20
40822;DHT22;26542;50.836;5.356;2022-08-14T06:40:27;22.80;80.10
40822;DHT22;26542;50.836;5.356;2022-08-14T06:42:54;22.90;79.90
40822;DHT22;26542;50.836;5.356;2022-08-14T06:45:20;23.10;79.50
40822;DHT22;26542;50.836;5.356;2022-08-14T06:47:47;23.20;77.40
40822;DHT22;26542;50.836;5.356;2022-08-14T06:50:16;23.40;76.00
40822;DHT22;26542;50.836;5.356;2022-08-14T06:52:42;23.50;74.30
40822;DHT22;26542;50.836;5.356;2022-08-14T06:55:13;23.70;73.90
40822;DHT22;26542;50.836;5.356;2022-08-14T06:57:41;23.80;73.30
40822;DHT22;26542;50.836;5.356;2022-08-14T07:00:09;24.00;72.70
40822;DHT22;26542;50.836;5.356;2022-08-14T07:02:36;24.10;72.00
40822;DHT22;26542;50.836;5.356;2022-08-14T07:05:21;24.30;72.70
40822;DHT22;26542;50.836;5.356;2022-08-14T07:08:05;24.40;73.00
40822;DHT22;26542;50.836;5.356;2022-08-14T07:10:31;24.50;72.20
40822;DHT22;26542;50.836;5.356;2022-08-14T07:13:01;24.60;72.00
40822;DHT22;26542;50.836;5.356;2022-08-14T07:15:36;24.70;71.90
40822;DHT22;26542;50.836;5.356;2022-08-14T07:18:05;24.90;71.50
40822;DHT22;26542;50.836;5.356;2022-08-14T07:20:32;25.00;71.90
40822;DHT22;26542;50.836;5.356;2022-08-14T07:23:09;25.20;71.30
40822;DHT22;26542;50.836;5.356;2022-08-14T07:25:36;25.30;70.80
40822;DHT22;26542;50.836;5.356;2022-08-14T07:28:32;25.40;70.90
40822;DHT22;26542;50.836;5.356;2022-08-14T07:31:01;25.60;70.60
40822;DHT22;26542;50.836;5.356;2022-08-14T07:33:30;25.70;69.60
40822;DHT22;26542;50.836;5.356;2022-08-14T07:35:59;25.90;69.90
40822;DHT22;26542;50.836;5.356;2022-08-14T07:38:26;26.00;70.40
40822;DHT22;26542;50.836;5.356;2022-08-14T07:40:52;26.20;69.00
40822;DHT22;26542;50.836;5.356;2022-08-14T07:43:21;26.30;69.20
40822;DHT22;26542;50.836;5.356;2022-08-14T07:45:56;26.50;67.30
40822;DHT22;26542;50.836;5.356;2022-08-14T07:48:22;26.60;68.60
40822;DHT22;26542;50.836;5.356;2022-08-14T07:50:50;26.80;69.40
40822;DHT22;26542;50.836;5.356;2022-08-14T07:53:17;26.90;68.40
40822;DHT22;26542;50.836;5.356;2022-08-14T07:55:45;27.00;66.90
40822;DHT22;26542;50.836;5.356;2022-08-14T07:58:20;27.10;66.90
40822;DHT22;26542;50.836;5.356;2022-08-14T08:00:45;27.30;66.70
40822;DHT22;26542;50.836;5.356;2022-08-14T08:03:14;27.30;66.10
40822;DHT22;26542;50.836;5.356;2022-08-14T08:05:44;27.40;66.10
40822;DHT22;26542;50.836;5.356;2022-08-14T08:08:11;27.50;67.00
40822;DHT22;26542;50.836;5.356;2022-08-14T08:10:37;27.60;66.90
40822;DHT22;26542;50.836;5.356;2022-08-14T08:13:12;27.80;67.00
40822;DHT22;26542;50.836;5.356;2022-08-14T08:15:51;28.00;66.70
40822;DHT22;26542;50.836;5.356;2022-08-14T08:18:19;28.20;66.20
40822;DHT22;26542;50.836;5.356;2022-08-14T08:20:47;28.30;65.30
40822;DHT22;26542;50.836;5.356;2022-08-14T08:23:14;28.40;66.00
40822;DHT22;26542;50.836;5.356;2022-08-14T08:25:46;28.50;65.90
40822;DHT22;26542;50.836;5.356;2022-08-14T08:28:18;28.60;64.90
40822;DHT22;26542;50.836;5.356;2022-08-14T08:33:14;29.10;64.10
40822;DHT22;26542;50.836;5.356;2022-08-14T08:35:42;29.30;64.20
40822;DHT22;26542;50.836;5.356;2022-08-14T08:38:16;29.50;65.40
40822;DHT22;26542;50.836;5.356;2022-08-14T08:40:45;29.60;63.40
40822;DHT22;26542;50.836;5.356;2022-08-14T08:43:32;29.70;64.00
40822;DHT22;26542;50.836;5.356;2022-08-14T08:48:56;30.20;62.20
40822;DHT22;26542;50.836;5.356;2022-08-14T08:51:33;30.40;63.50
40822;DHT22;26542;50.836;5.356;2022-08-14T08:54:09;30.60;62.50
40822;DHT22;26542;50.836;5.356;2022-08-14T08:56:46;30.60;61.90
40822;DHT22;26542;50.836;5.356;2022-08-14T08:59:30;30.90;60.10
40822;DHT22;26542;50.836;5.356;2022-08-14T09:02:08;30.90;60.80
40822;DHT22;26542;50.836;5.356;2022-08-14T09:04:38;31.00;61.00
40822;DHT22;26542;50.836;5.356;2022-08-14T09:07:06;31.10;60.90
40822;DHT22;26542;50.836;5.356;2022-08-14T09:09:34;31.30;59.40
40822;DHT22;26542;50.836;5.356;2022-08-14T09:12:01;31.40;59.20
40822;DHT22;26542;50.836;5.356;2022-08-14T09:14:29;31.60;58.20
40822;DHT22;26542;50.836;5.356;2022-08-14T09:16:59;31.70;58.40
40822;DHT22;26542;50.836;5.356;2022-08-14T09:19:26;31.80;57.20
40822;DHT22;26542;50.836;5.356;2022-08-14T09:21:57;31.80;57.30
40822;DHT22;26542;50.836;5.356;2022-08-14T09:24:29;32.00;58.40
40822;DHT22;26542;50.836;5.356;2022-08-14T09:26:55;32.10;57.60
40822;DHT22;26542;50.836;5.356;2022-08-14T09:29:48;32.10;58.10
40822;DHT22;26542;50.836;5.356;2022-08-14T09:32:26;32.30;55.80
40822;DHT22;26542;50.836;5.356;2022-08-14T09:38:04;32.70;56.80
40822;DHT22;26542;50.836;5.356;2022-08-14T09:41:04;32.80;54.00
40822;DHT22;26542;50.836;5.356;2022-08-14T09:43:50;33.00;53.40
40822;DHT22;26542;50.836;5.356;2022-08-14T09:46:22;33.10;54.60
40822;DHT22;26542;50.836;5.356;2022-08-14T09:49:05;33.20;55.10
40822;DHT22;26542;50.836;5.356;2022-08-14T09:51:32;33.30;54.30
40822;DHT22;26542;50.836;5.356;2022-08-14T09:54:06;33.40;54.00
40822;DHT22;26542;50.836;5.356;2022-08-14T09:56:44;33.70;54.90
40822;DHT22;26542;50.836;5.356;2022-08-14T09:59:13;33.80;53.20
40822;DHT22;26542;50.836;5.356;2022-08-14T10:01:47;34.00;52.60
40822;DHT22;26542;50.836;5.356;2022-08-14T10:04:31;34.10;52.90
40822;DHT22;26542;50.836;5.356;2022-08-14T10:06:57;34.20;52.10
40822;DHT22;26542;50.836;5.356;2022-08-14T10:09:23;34.20;49.80
40822;DHT22;26542;50.836;5.356;2022-08-14T10:11:58;34.00;49.30
40822;DHT22;26542;50.836;5.356;2022-08-14T10:14:27;34.00;51.40
40822;DHT22;26542;50.836;5.356;2022-08-14T10:16:56;34.10;49.10
40822;DHT22;26542;50.836;5.356;2022-08-14T10:19:26;34.00;50.10
40822;DHT22;26542;50.836;5.356;2022-08-14T10:22:07;33.90;50.10
40822;DHT22;26542;50.836;5.356;2022-08-14T10:24:39;33.80;50.20
40822;DHT22;26542;50.836;5.356;2022-08-14T10:27:15;33.70;51.50
40822;DHT22;26542;50.836;5.356;2022-08-14T10:29:46;33.80;50.50
40822;DHT22;26542;50.836;5.356;2022-08-14T10:32:12;34.00;51.20
40822;DHT22;26542;50.836;5.356;2022-08-14T10:34:40;34.10;51.80
40822;DHT22;26542;50.836;5.356;2022-08-14T10:37:10;34.00;49.30
40822;DHT22;26542;50.836;5.356;2022-08-14T10:39:39;34.00;51.00
40822;DHT22;26542;50.836;5.356;2022-08-14T10:42:16;34.10;51.30
40822;DHT22;26542;50.836;5.356;2022-08-14T10:44:44;34.20;49.60
40822;DHT22;26542;50.836;5.356;2022-08-14T10:47:14;34.40;49.10
40822;DHT22;26542;50.836;5.356;2022-08-14T10:49:58;34.60;49.70
40822;DHT22;26542;50.836;5.356;2022-08-14T10:52:28;34.70;49.80
40822;DHT22;26542;50.836;5.356;2022-08-14T10:57:33;35.00;49.50
40822;DHT22;26542;50.836;5.356;2022-08-14T11:00:12;35.10;48.90
40822;DHT22;26542;50.836;5.356;2022-08-14T11:02:41;35.30;49.50
40822;DHT22;26542;50.836;5.356;2022-08-14T11:05:16;35.50;49.90
40822;DHT22;26542;50.836;5.356;2022-08-14T11:07:57;35.60;48.80
40822;DHT22;26542;50.836;5.356;2022-08-14T11:10:46;35.70;48.40
40822;DHT22;26542;50.836;5.356;2022-08-14T11:13:31;35.70;48.50
40822;DHT22;26542;50.836;5.356;2022-08-14T11:15:59;35.80;49.00
40822;DHT22;26542;50.836;5.356;2022-08-14T11:18:26;36.00;48.30
40822;DHT22;26542;50.836;5.356;2022-08-14T11:20:59;36.20;47.60
40822;DHT22;26542;50.836;5.356;2022-08-14T11:23:29;36.40;49.00
40822;DHT22;26542;50.836;5.356;2022-08-14T11:25:57;36.60;49.00
40822;DHT22;26542;50.836;5.356;2022-08-14T11:28:26;36.50;47.60
40822;DHT22;26542;50.836;5.356;2022-08-14T11:30:55;36.30;47.50
40822;DHT22;26542;50.836;5.356;2022-08-14T11:33:26;36.50;49.40
40822;DHT22;26542;50.836;5.356;2022-08-14T11:36:01;36.50;48.90
40822;DHT22;26542;50.836;5.356;2022-08-14T11:38:43;36.80;48.10
40822;DHT22;26542;50.836;5.356;2022-08-14T11:41:12;36.80;48.00
40822;DHT22;26542;50.836;5.356;2022-08-14T11:43:47;36.70;48.80
40822;DHT22;26542;50.836;5.356;2022-08-14T11:46:13;36.60;47.10
40822;DHT22;26542;50.836;5.356;2022-08-14T11:48:52;36.60;47.10
40822;DHT22;26542;50.836;5.356;2022-08-14T11:51:23;36.80;48.20
40822;DHT22;26542;50.836;5.356;2022-08-14T11:54:02;36.90;47.10
40822;DHT22;26542;50.836;5.356;2022-08-14T11:56:35;37.00;47.60
40822;DHT22;26542;50.836;5.356;2022-08-14T11:59:06;37.10;48.00
40822;DHT22;26542;50.836;5.356;2022-08-14T12:01:33;37.10;46.80
40822;DHT22;26542;50.836;5.356;2022-08-14T12:04:11;37.10;48.70
40822;DHT22;26542;50.836;5.356;2022-08-14T12:06:54;37.10;47.10
40822;DHT22;26542;50.836;5.356;2022-08-14T12:09:53;37.20;46.70
40822;DHT22;26542;50.836;5.356;2022-08-14T12:12:23;37.10;45.90
40822;DHT22;26542;50.836;5.356;2022-08-14T12:14:53;36.80;47.20
40822;DHT22;26542;50.836;5.356;2022-08-14T12:17:23;36.60;49.30
40822;DHT22;26542;50.836;5.356;2022-08-14T12:19:50;36.60;47.50
40822;DHT22;26542;50.836;5.356;2022-08-14T12:22:17;36.50;49.10
40822;DHT22;26542;50.836;5.356;2022-08-14T12:24:43;36.50;48.70
40822;DHT22;26542;50.836;5.356;2022-08-14T12:27:10;36.50;48.00
40822;DHT22;26542;50.836;5.356;2022-08-14T12:29:37;36.40;47.70
40822;DHT22;26542;50.836;5.356;2022-08-14T12:32:06;36.50;49.50
40822;DHT22;26542;50.836;5.356;2022-08-14T12:34:35;36.60;49.40
40822;DHT22;26542;50.836;5.356;2022-08-14T12:37:06;36.30;47.60
40822;DHT22;26542;50.836;5.356;2022-08-14T12:39:33;36.30;48.30
40822;DHT22;26542;50.836;5.356;2022-08-14T12:42:01;36.40;48.00
40822;DHT22;26542;50.836;5.356;2022-08-14T12:44:35;36.60;48.40
40822;DHT22;26542;50.836;5.356;2022-08-14T12:49:29;36.90;46.90
40822;DHT22;26542;50.836;5.356;2022-08-14T12:51:57;36.70;48.20
40822;DHT22;26542;50.836;5.356;2022-08-14T12:54:24;36.90;48.30
40822;DHT22;26542;50.836;5.356;2022-08-14T12:56:50;36.90;46.50
40822;DHT22;26542;50.836;5.356;2022-08-14T12:59:15;37.00;47.50
40822;DHT22;26542;50.836;5.356;2022-08-14T13:01:44;37.00;46.90
40822;DHT22;26542;50.836;5.356;2022-08-14T13:04:15;37.10;48.40
40822;DHT22;26542;50.836;5.356;2022-08-14T13:06:43;37.30;47.50
40822;DHT22;26542;50.836;5.356;2022-08-14T13:09:11;37.30;46.70
40822;DHT22;26542;50.836;5.356;2022-08-14T13:11:45;37.40;47.20
40822;DHT22;26542;50.836;5.356;2022-08-14T13:14:21;37.60;48.10
40822;DHT22;26542;50.836;5.356;2022-08-14T13:16:52;37.60;47.70
40822;DHT22;26542;50.836;5.356;2022-08-14T13:19:19;37.50;48.80
40822;DHT22;26542;50.836;5.356;2022-08-14T13:21:49;37.70;48.10
40822;DHT22;26542;50.836;5.356;2022-08-14T13:24:18;37.70;48.10
40822;DHT22;26542;50.836;5.356;2022-08-14T13:26:55;37.70;48.00
40822;DHT22;26542;50.836;5.356;2022-08-14T13:29:25;37.90;48.50
40822;DHT22;26542;50.836;5.356;2022-08-14T13:31:53;37.80;48.20
40822;DHT22;26542;50.836;5.356;2022-08-14T13:34:23;37.80;48.20
40822;DHT22;26542;50.836;5.356;2022-08-14T13:36:49;37.80;47.70
40822;DHT22;26542;50.836;5.356;2022-08-14T13:39:17;37.70;48.10
40822;DHT22;26542;50.836;5.356;2022-08-14T13:41:43;37.80;47.30
40822;DHT22;26542;50.836;5.356;2022-08-14T13:44:10;37.60;47.20
40822;DHT22;26542;50.836;5.356;2022-08-14T13:46:38;37.50;48.10
40822;DHT22;26542;50.836;5.356;2022-08-14T13:49:07;37.60;47.20
40822;DHT22;26542;50.836;5.356;2022-08-14T13:51:38;37.60;46.90
40822;DHT22;26542;50.836;5.356;2022-08-14T13:54:07;37.70;46.90
40822;DHT22;26542;50.836;5.356;2022-08-14T13:56:38;37.70;46.60
40822;DHT22;26542;50.836;5.356;2022-08-14T13:59:04;37.80;47.40
40822;DHT22;26542;50.836;5.356;2022-08-14T14:01:31;37.70;49.00
40822;DHT22;26542;50.836;5.356;2022-08-14T14:03:59;37.70;49.30
40822;DHT22;26542;50.836;5.356;2022-08-14T14:06:28;37.70;46.80
40822;DHT22;26542;50.836;5.356;2022-08-14T14:08:56;37.70;48.40
40822;DHT22;26542;50.836;5.356;2022-08-14T14:11:22;37.80;48.10
40822;DHT22;26542;50.836;5.356;2022-08-14T14:13:56;37.80;47.60
40822;DHT22;26542;50.836;5.356;2022-08-14T14:16:23;37.90;48.90
40822;DHT22;26542;50.836;5.356;2022-08-14T14:18:52;38.00;48.30
40822;DHT22;26542;50.836;5.356;2022-08-14T14:21:23;37.90;48.70
40822;DHT22;26542;50.836;5.356;2022-08-14T14:23:50;37.80;47.30
40822;DHT22;26542;50.836;5.356;2022-08-14T14:26:18;37.60;47.50
40822;DHT22;26542;50.836;5.356;2022-08-14T14:28:49;37.50;47.80
40822;DHT22;26542;50.836;5.356;2022-08-14T14:31:24;37.60;47.90
40822;DHT22;26542;50.836;5.356;2022-08-14T14:33:55;37.70;47.70
40822;DHT22;26542;50.836;5.356;2022-08-14T14:36:24;37.70;47.30
40822;DHT22;26542;50.836;5.356;2022-08-14T14:38:55;37.70;48.30
40822;DHT22;26542;50.836;5.356;2022-08-14T14:41:23;37.70;48.70
40822;DHT22;26542;50.836;5.356;2022-08-14T14:43:49;37.70;48.50
40822;DHT22;26542;50.836;5.356;2022-08-14T14:46:20;37.70;48.70
40822;DHT22;26542;50.836;5.356;2022-08-14T14:48:46;37.70;47.80
40822;DHT22;26542;50.836;5.356;2022-08-14T14:51:14;37.50;47.10
40822;DHT22;26542;50.836;5.356;2022-08-14T14:53:42;37.60;49.10
40822;DHT22;26542;50.836;5.356;2022-08-14T14:56:08;37.60;47.50
40822;DHT22;26542;50.836;5.356;2022-08-14T14:58:36;37.50;48.50
40822;DHT22;26542;50.836;5.356;2022-08-14T15:01:04;37.40;48.50
40822;DHT22;26542;50.836;5.356;2022-08-14T15:03:35;37.40;49.30
40822;DHT22;26542;50.836;5.356;2022-08-14T15:06:03;37.30;50.00
40822;DHT22;26542;50.836;5.356;2022-08-14T15:08:29;37.30;48.60
40822;DHT22;26542;50.836;5.356;2022-08-14T15:10:56;37.40;48.20
40822;DHT22;26542;50.836;5.356;2022-08-14T15:13:22;37.50;49.60
40822;DHT22;26542;50.836;5.356;2022-08-14T15:15:48;37.60;49.10
40822;DHT22;26542;50.836;5.356;2022-08-14T15:18:14;37.60;49.70
40822;DHT22;26542;50.836;5.356;2022-08-14T15:20:40;37.50;49.10
40822;DHT22;26542;50.836;5.356;2022-08-14T15:23:06;37.30;48.20
40822;DHT22;26542;50.836;5.356;2022-08-14T15:25:34;37.10;48.80
40822;DHT22;26542;50.836;5.356;2022-08-14T15:28:00;37.00;48.90
40822;DHT22;26542;50.836;5.356;2022-08-14T15:30:27;36.80;47.90
40822;DHT22;26542;50.836;5.356;2022-08-14T15:32:53;36.80;49.90
40822;DHT22;26542;50.836;5.356;2022-08-14T15:35:20;36.70;49.50
40822;DHT22;26542;50.836;5.356;2022-08-14T15:37:47;36.50;49.70
40822;DHT22;26542;50.836;5.356;2022-08-14T15:40:13;36.60;49.10
40822;DHT22;26542;50.836;5.356;2022-08-14T15:42:40;36.60;49.20
40822;DHT22;26542;50.836;5.356;2022-08-14T15:45:09;36.60;48.60
40822;DHT22;26542;50.836;5.356;2022-08-14T15:47:39;36.60;49.60
40822;DHT22;26542;50.836;5.356;2022-08-14T15:50:09;36.60;50.50
40822;DHT22;26542;50.836;5.356;2022-08-14T15:52:37;36.70;50.00
40822;DHT22;26542;50.836;5.356;2022-08-14T15:55:09;36.80;47.70
40822;DHT22;26542;50.836;5.356;2022-08-14T15:57:36;36.80;47.20
40822;DHT22;26542;50.836;5.356;2022-08-14T16:00:05;36.70;49.20
40822;DHT22;26542;50.836;5.356;2022-08-14T16:02:49;36.70;49.40
40822;DHT22;26542;50.836;5.356;2022-08-14T16:05:15;36.50;50.50
40822;DHT22;26542;50.836;5.356;2022-08-14T16:07:48;36.30;50.90